Time;durP1;ratioP1;P1;durP2;ratioP2;P2;SDS_P1;SDS_P2;PMS_P1;PMS_P2;Temp;Humidity;BMP_temperature;BMP_pressure;BME280_temperature;BME280_humidity;BME280_pressure;Samples;Min_cycle;Max_cycle;Signal;HPM_P1;HPM_P2
2022/08/27 00:02:29;;;;;;;4.20;2.27;;;22.80;99.90;;;;;;1902972;75;21047;-77
2022/08/27 00:05:22;;;;;;;3.83;2.15;;;22.70;99.90;;;;;;1885319;75;21137;-76
2022/08/27 00:08:15;;;;;;;2.92;2.10;;;22.60;99.90;;;;;;1890598;75;21056;-76
2022/08/27 00:11:06;;;;;;;3.75;2.20;;;22.50;99.90;;;;;;1895109;75;21219;-77
2022/08/27 00:13:58;;;;;;;2.20;2.10;;;22.60;99.90;;;;;;1904307;75;21079;-77
2022/08/27 00:16:50;;;;;;;2.17;1.98;;;22.40;99.90;;;;;;1874852;75;21098;-77
2022/08/27 00:19:41;;;;;;;2.47;2.08;;;22.30;99.90;;;;;;1893625;75;21115;-77
2022/08/27 00:22:33;;;;;;;4.58;2.10;;;22.30;99.90;;;;;;1880541;75;21068;-76
2022/08/27 00:25:24;;;;;;;2.92;2.42;;;22.30;99.90;;;;;;1879607;75;21105;-76
2022/08/27 00:30:55;;;;;;;4.00;2.17;;;22.10;99.90;;;;;;1951870;72;22146;-76
2022/08/27 00:33:46;;;;;;;2.65;2.33;;;22.10;99.90;;;;;;1929072;73;21086;-77
2022/08/27 00:36:38;;;;;;;5.30;2.12;;;22.10;99.90;;;;;;1947285;73;21095;-77
2022/08/27 00:39:29;;;;;;;2.87;1.90;;;22.00;99.90;;;;;;1920598;73;21094;-78
2022/08/27 00:42:21;;;;;;;4.85;2.22;;;21.90;99.90;;;;;;1917658;74;21055;-77
2022/08/27 00:45:14;;;;;;;2.80;1.95;;;21.80;99.90;;;;;;1932709;73;21096;-78
2022/08/27 00:48:07;;;;;;;3.90;2.20;;;21.80;99.90;;;;;;1939592;73;21170;-77
2022/08/27 00:53:38;;;;;;;6.03;3.62;;;21.70;99.90;;;;;;1928779;72;22129;-77
2022/08/27 00:56:31;;;;;;;2.55;2.22;;;21.70;99.90;;;;;;1895075;75;21126;-77
2022/08/27 00:59:28;;;;;;;3.27;2.37;;;21.70;99.90;;;;;;1879420;75;21137;-77
2022/08/27 01:02:18;;;;;;;2.95;2.02;;;21.80;99.90;;;;;;1893427;75;21117;-78
2022/08/27 01:05:13;;;;;;;3.47;2.45;;;21.80;99.90;;;;;;1873102;75;21217;-79
2022/08/27 01:10:47;;;;;;;3.70;2.40;;;21.80;99.90;;;;;;1949355;72;22210;-79
2022/08/27 01:16:22;;;;;;;5.12;2.65;;;21.70;99.90;;;;;;1935041;72;22209;-78
2022/08/27 01:19:18;;;;;;;4.15;2.40;;;21.70;99.90;;;;;;1900080;74;21133;-80
2022/08/27 01:22:14;;;;;;;3.35;2.70;;;21.70;99.90;;;;;;1885502;75;21197;-80
2022/08/27 01:25:09;;;;;;;3.83;2.47;;;21.60;99.90;;;;;;1892259;75;21161;-81
2022/08/27 01:28:03;;;;;;;3.45;2.20;;;21.50;99.90;;;;;;1888240;75;21168;-81
2022/08/27 01:30:57;;;;;;;3.55;2.47;;;21.40;99.90;;;;;;1914010;75;21038;-81
2022/08/27 01:33:58;;;;;;;4.15;2.35;;;21.50;99.90;;;;;;1895956;75;21157;-80
2022/08/27 01:36:49;;;;;;;2.92;2.42;;;21.30;99.90;;;;;;1906659;75;21093;-82
2022/08/27 01:39:42;;;;;;;4.03;2.85;;;21.30;99.90;;;;;;1891975;75;21118;-82
2022/08/27 01:42:36;;;;;;;2.80;2.58;;;21.30;99.90;;;;;;1884711;75;21087;-82
2022/08/27 01:45:31;;;;;;;2.50;2.30;;;21.30;99.90;;;;;;1902365;75;21540;-81
2022/08/27 01:48:23;;;;;;;3.22;2.72;;;21.20;99.90;;;;;;1905961;75;21043;-79
2022/08/27 01:51:15;;;;;;;4.20;2.30;;;21.20;99.90;;;;;;1896119;75;21183;-80
2022/08/27 01:54:07;;;;;;;5.47;3.70;;;21.20;99.90;;;;;;1884800;75;21094;-80
2022/08/27 01:56:59;;;;;;;3.00;2.70;;;21.30;99.90;;;;;;1898370;75;21534;-79
2022/08/27 01:59:51;;;;;;;4.03;2.80;;;21.30;99.90;;;;;;1900630;75;21306;-80
2022/08/27 02:02:43;;;;;;;4.60;3.70;;;21.20;99.90;;;;;;1890132;75;21516;-80
2022/08/27 02:05:35;;;;;;;5.83;3.55;;;21.10;99.90;;;;;;1900091;75;21067;-79
2022/08/27 02:08:28;;;;;;;3.72;2.80;;;21.10;99.90;;;;;;1917140;75;21138;-79
2022/08/27 02:11:19;;;;;;;4.33;3.00;;;21.00;99.90;;;;;;1889988;75;21055;-79
2022/08/27 02:14:10;;;;;;;3.60;2.67;;;21.00;99.90;;;;;;1910914;75;21083;-79
2022/08/27 02:19:45;;;;;;;3.17;2.20;;;20.90;99.90;;;;;;1918069;72;22188;-79
2022/08/27 02:22:36;;;;;;;3.35;2.52;;;20.90;99.90;;;;;;1892640;73;21067;-79
2022/08/27 02:30:52;;;;;;;4.47;3.27;;;20.90;99.90;;;;;;1948871;72;22200;-79
2022/08/27 02:36:27;;;;;;;4.25;3.05;;;20.80;99.90;;;;;;1951019;72;22067;-79
2022/08/27 02:42:01;;;;;;;4.53;2.90;;;20.70;99.90;;;;;;1947054;72;22181;-79
2022/08/27 02:44:55;;;;;;;4.28;2.90;;;20.60;99.90;;;;;;1938737;73;21164;-79
2022/08/27 02:47:46;;;;;;;3.50;2.62;;;20.60;99.90;;;;;;1921003;73;21447;-79
2022/08/27 02:55:55;;;;;;;4.22;2.65;;;20.50;99.90;;;;;;1941873;72;22125;-77
2022/08/27 02:58:46;;;;;;;3.35;2.52;;;20.50;99.90;;;;;;1904391;75;21257;-77
2022/08/27 03:01:38;;;;;;;4.42;2.80;;;20.50;99.90;;;;;;1906258;75;21046;-76
2022/08/27 03:04:30;;;;;;;2.83;2.60;;;20.50;99.90;;;;;;1895459;75;21127;-77
2022/08/27 03:07:23;;;;;;;3.75;2.70;;;20.50;99.90;;;;;;1900842;75;21137;-76
2022/08/27 03:12:52;;;;;;;2.80;2.47;;;20.50;99.90;;;;;;1943164;72;22358;-76
2022/08/27 03:15:44;;;;;;;2.75;2.30;;;20.50;99.90;;;;;;1921140;73;21073;-76
2022/08/27 03:21:20;;;;;;;3.17;2.70;;;20.40;99.90;;;;;;1923242;72;22248;-76
2022/08/27 03:24:11;;;;;;;4.17;2.83;;;20.40;99.90;;;;;;1902029;75;21068;-79
2022/08/27 03:27:04;;;;;;;3.00;2.60;;;20.30;99.90;;;;;;1891205;74;21134;-76
2022/08/27 03:29:56;;;;;;;3.08;2.70;;;20.30;99.90;;;;;;1931821;74;21152;-78
2022/08/27 03:32:49;;;;;;;3.90;2.77;;;20.30;99.90;;;;;;1907019;74;21099;-76
2022/08/27 03:35:40;;;;;;;3.58;2.50;;;20.20;99.90;;;;;;1922917;74;21054;-76
2022/08/27 03:38:32;;;;;;;3.22;2.60;;;20.10;99.90;;;;;;1909520;73;21065;-77
2022/08/27 03:41:24;;;;;;;4.12;2.67;;;20.20;99.90;;;;;;1920695;73;21063;-76
2022/08/27 03:47:02;;;;;;;3.58;2.52;;;20.10;99.90;;;;;;1946082;72;22255;-78
2022/08/27 03:49:59;;;;;;;4.35;3.10;;;20.10;99.90;;;;;;1932955;73;21098;-78
2022/08/27 03:52:49;;;;;;;3.83;2.83;;;20.10;99.90;;;;;;1886004;76;21191;-78
2022/08/27 03:55:41;;;;;;;3.10;2.45;;;20.10;99.90;;;;;;1875940;76;21087;-78
2022/08/27 03:58:32;;;;;;;4.25;2.80;;;20.00;99.90;;;;;;1940490;73;21189;-79
2022/08/27 04:01:25;;;;;;;4.08;2.70;;;19.90;99.90;;;;;;1927865;73;21160;-78
2022/08/27 04:06:54;;;;;;;3.72;2.90;;;19.90;99.90;;;;;;1951956;72;22167;-79
2022/08/27 04:09:47;;;;;;;3.58;2.67;;;19.80;99.90;;;;;;1840587;77;21227;-80
2022/08/27 04:12:39;;;;;;;5.58;3.00;;;19.80;99.90;;;;;;1878350;75;21129;-81
2022/08/27 04:15:31;;;;;;;5.65;3.02;;;19.80;99.90;;;;;;1887364;75;21127;-81
2022/08/27 04:18:22;;;;;;;3.95;2.70;;;19.70;99.90;;;;;;1873092;75;21197;-76
2022/08/27 04:21:15;;;;;;;3.45;2.62;;;19.80;99.90;;;;;;1881631;75;21052;-79
2022/08/27 04:24:07;;;;;;;7.95;3.22;;;19.80;99.90;;;;;;1883552;75;21126;-79
2022/08/27 04:26:59;;;;;;;3.83;2.75;;;19.80;99.90;;;;;;1873181;75;21530;-78
2022/08/27 04:29:53;;;;;;;3.90;2.80;;;19.80;99.90;;;;;;1890982;75;21606;-79
2022/08/27 04:32:44;;;;;;;4.42;3.02;;;19.80;99.90;;;;;;1889820;75;21182;-80
2022/08/27 04:44:14;;;;;;;5.58;2.77;;;19.80;99.90;;;;;;1887445;75;21109;-77
2022/08/27 04:47:06;;;;;;;3.75;3.08;;;19.60;99.90;;;;;;1884698;75;21061;-77
2022/08/27 04:52:38;;;;;;;2.98;2.58;;;19.60;99.90;;;;;;1927135;72;22198;-79
2022/08/27 05:00:50;;;;;;;5.20;2.83;;;19.50;99.90;;;;;;1946140;72;22165;-81
2022/08/27 05:03:48;;;;;;;3.08;2.67;;;19.50;99.90;;;;;;1884694;75;21062;-81
2022/08/27 05:06:40;;;;;;;4.17;3.12;;;19.50;99.90;;;;;;1884935;75;21133;-81
2022/08/27 05:09:33;;;;;;;3.10;2.80;;;19.50;99.90;;;;;;1889776;75;21160;-80
2022/08/27 05:12:24;;;;;;;5.42;2.83;;;19.50;99.90;;;;;;1905394;75;21345;-80
2022/08/27 05:15:16;;;;;;;4.10;2.80;;;19.50;99.90;;;;;;1898934;75;21044;-81
2022/08/27 05:18:08;;;;;;;4.75;2.90;;;19.50;99.90;;;;;;1884901;75;21507;-81
2022/08/27 05:21:07;;;;;;;3.92;2.83;;;19.40;99.90;;;;;;1910915;75;21569;-81
2022/08/27 05:24:03;;;;;;;3.70;2.92;;;19.40;99.90;;;;;;1899464;75;21139;-81
2022/08/27 05:29:34;;;;;;;4.10;2.90;;;19.40;99.90;;;;;;1963029;72;22271;-81
2022/08/27 05:32:26;;;;;;;4.40;2.80;;;19.30;99.90;;;;;;1925412;74;21556;-81
2022/08/27 05:37:56;;;;;;;5.92;3.30;;;19.40;99.90;;;;;;1953719;72;22131;-81
2022/08/27 05:40:48;;;;;;;4.55;2.80;;;19.40;99.90;;;;;;1890952;75;21545;-76
2022/08/27 05:49:06;;;;;;;5.80;3.10;;;19.40;99.90;;;;;;1946837;72;22130;-77
2022/08/27 05:51:58;;;;;;;3.20;2.90;;;19.30;99.90;;;;;;1891985;75;21160;-77
2022/08/27 05:54:49;;;;;;;3.02;2.62;;;19.30;99.90;;;;;;1901247;75;21111;-77
2022/08/27 05:57:40;;;;;;;2.92;2.67;;;19.30;99.90;;;;;;1916795;75;21084;-77
2022/08/27 06:06:01;;;;;;;3.90;2.90;;;19.30;99.90;;;;;;1946833;72;22306;-78
2022/08/27 06:08:54;;;;;;;3.55;3.10;;;19.30;99.90;;;;;;1893563;75;21054;-78
2022/08/27 06:11:46;;;;;;;3.52;3.10;;;19.30;99.90;;;;;;1893783;75;21098;-77
2022/08/27 06:17:18;;;;;;;3.35;2.90;;;19.20;99.90;;;;;;1934374;72;22201;-77
2022/08/27 06:20:10;;;;;;;3.30;3.00;;;19.30;99.90;;;;;;1887617;75;21059;-76
2022/08/27 06:23:02;;;;;;;3.65;2.85;;;19.30;99.90;;;;;;1890817;75;21227;-77
2022/08/27 06:25:53;;;;;;;3.65;2.85;;;19.20;99.90;;;;;;1884367;75;21096;-77
2022/08/27 06:28:44;;;;;;;3.72;3.20;;;19.20;99.90;;;;;;1889968;75;21079;-77
2022/08/27 06:31:36;;;;;;;3.30;2.95;;;19.20;99.90;;;;;;1885863;75;21177;-76
2022/08/27 06:37:08;;;;;;;3.55;2.98;;;19.20;99.90;;;;;;1940118;72;22113;-73
2022/08/27 06:39:59;;;;;;;3.42;3.00;;;19.20;99.90;;;;;;1916337;74;21096;-74
2022/08/27 06:42:50;;;;;;;3.30;3.00;;;19.30;99.90;;;;;;1880516;75;21172;-74
2022/08/27 06:45:42;;;;;;;4.45;3.00;;;19.40;99.90;;;;;;1916531;75;21140;-74
2022/08/27 06:48:35;;;;;;;3.25;2.95;;;19.40;99.90;;;;;;1881624;76;21118;-74
2022/08/27 06:51:28;;;;;;;4.20;3.02;;;19.40;99.90;;;;;;1864581;76;21103;-74
2022/08/27 06:57:00;;;;;;;3.25;2.95;;;19.60;99.90;;;;;;1942615;72;22713;-72
2022/08/27 06:59:51;;;;;;;6.35;3.42;;;19.60;99.90;;;;;;1936042;73;21158;-73
2022/08/27 07:02:42;;;;;;;3.85;3.40;;;19.60;99.90;;;;;;1917686;73;21051;-73
2022/08/27 07:05:34;;;;;;;4.60;3.08;;;19.70;99.90;;;;;;1917489;75;21173;-74
2022/08/27 07:11:04;;;;;;;3.45;3.15;;;19.70;99.90;;;;;;1955281;72;22143;-72
2022/08/27 07:13:56;;;;;;;4.95;3.83;;;19.80;99.90;;;;;;1899350;75;21164;-72
2022/08/27 07:16:47;;;;;;;4.65;3.72;;;19.90;99.90;;;;;;1884641;75;21090;-73
2022/08/27 07:19:40;;;;;;;5.55;4.28;;;20.00;99.90;;;;;;1903907;75;21091;-73
2022/08/27 07:22:32;;;;;;;5.67;3.87;;;20.00;99.90;;;;;;1899303;74;21608;-73
2022/08/27 07:25:23;;;;;;;4.83;4.28;;;20.20;99.90;;;;;;1893631;75;21064;-73
2022/08/27 07:33:48;;;;;;;4.90;4.50;;;20.40;99.90;;;;;;1939937;72;22251;-74
2022/08/27 07:36:41;;;;;;;4.97;4.50;;;20.50;99.90;;;;;;1907046;75;21058;-75
2022/08/27 07:45:49;;;;;;;6.08;5.12;;;20.60;99.90;;;;;;1904453;75;21142;-75
2022/08/27 07:48:40;;;;;;;6.00;5.42;;;20.80;99.90;;;;;;1900943;75;21987;-75
2022/08/27 07:51:35;;;;;;;6.30;5.53;;;20.80;99.90;;;;;;1891108;75;21133;-75
2022/08/27 07:57:04;;;;;;;5.62;5.08;;;21.00;99.90;;;;;;1930498;72;22138;-74
2022/08/27 08:00:04;;;;;;;5.30;4.80;;;21.10;99.90;;;;;;1904818;75;21602;-73
2022/08/27 08:03:04;;;;;;;5.78;5.15;;;21.30;99.90;;;;;;1905489;75;21146;-87
2022/08/27 08:06:07;;;;;;;7.20;5.60;;;21.30;99.90;;;;;;1904408;75;21123;-78
2022/08/27 08:09:02;;;;;;;8.28;5.60;;;21.50;99.90;;;;;;1892173;75;21039;-77
2022/08/27 08:12:01;;;;;;;5.92;5.17;;;21.60;99.90;;;;;;1902257;75;21036;-75
2022/08/27 08:17:34;;;;;;;5.62;5.05;;;21.80;99.90;;;;;;1945924;72;22244;-84
2022/08/27 08:20:25;;;;;;;5.90;4.92;;;21.90;99.90;;;;;;1906246;75;21048;-75
2022/08/27 08:23:28;;;;;;;5.50;4.95;;;21.70;99.90;;;;;;1902617;75;21101;-75
2022/08/27 08:26:26;;;;;;;5.28;4.80;;;21.70;99.90;;;;;;1898696;75;21128;-74
2022/08/27 08:29:28;;;;;;;5.67;4.37;;;21.80;99.90;;;;;;1903116;75;21153;-75
2022/08/27 08:32:20;;;;;;;5.22;4.70;;;21.90;99.90;;;;;;1868867;76;21152;-77
2022/08/27 08:35:24;;;;;;;4.60;4.20;;;21.80;99.90;;;;;;1898033;75;21538;-77
2022/08/27 08:38:32;;;;;;;5.25;4.50;;;21.90;99.90;;;;;;1899174;75;21146;-80
2022/08/27 08:41:40;;;;;;;4.90;4.47;;;22.00;99.90;;;;;;1898210;75;21137;-80
2022/08/27 08:44:36;;;;;;;4.45;4.03;;;22.00;99.90;;;;;;1899801;75;21117;-78
2022/08/27 08:47:30;;;;;;;4.50;4.08;;;22.20;99.90;;;;;;1902241;75;21055;-77
2022/08/27 08:53:05;;;;;;;5.10;4.17;;;22.30;99.90;;;;;;1937333;72;22146;-75
2022/08/27 08:55:59;;;;;;;4.72;4.15;;;22.40;99.90;;;;;;1889149;75;21060;-78
2022/08/27 09:01:30;;;;;;;5.80;4.22;;;22.60;99.90;;;;;;1940188;72;22282;-75
2022/08/27 09:04:23;;;;;;;4.95;4.28;;;22.70;99.90;;;;;;1897304;75;21101;-78
2022/08/27 09:07:18;;;;;;;4.90;4.08;;;22.90;99.90;;;;;;1903635;75;21120;-79
2022/08/27 09:10:15;;;;;;;5.62;4.37;;;22.90;99.90;;;;;;1901863;75;21066;-78
2022/08/27 09:13:09;;;;;;;5.35;3.95;;;22.80;99.90;;;;;;1898387;75;21153;-78
2022/08/27 09:16:03;;;;;;;4.92;3.83;;;22.80;99.90;;;;;;1902690;75;21503;-81
2022/08/27 09:19:04;;;;;;;4.40;4.00;;;23.00;99.90;;;;;;1896879;75;21051;-76
2022/08/27 09:22:08;;;;;;;4.47;4.08;;;23.10;99.90;;;;;;1903562;75;21168;-77
2022/08/27 09:27:51;;;;;;;4.28;3.98;;;23.40;99.90;;;;;;1952935;72;22324;-80
2022/08/27 09:30:44;;;;;;;4.33;3.87;;;23.50;99.90;;;;;;1916882;75;22306;-80
2022/08/27 09:36:30;;;;;;;4.53;4.03;;;23.80;99.90;;;;;;1951578;72;22110;-79
2022/08/27 09:39:28;;;;;;;4.05;3.75;;;23.90;99.90;;;;;;1917483;73;21058;-81
2022/08/27 09:42:30;;;;;;;3.87;3.57;;;24.10;99.90;;;;;;1922135;74;21113;-80
2022/08/27 09:45:24;;;;;;;5.75;5.12;;;24.30;99.90;;;;;;1923758;73;21193;-80
2022/08/27 09:51:01;;;;;;;5.08;4.00;;;24.10;99.90;;;;;;1938794;72;22268;-80
2022/08/27 09:56:33;;;;;;;5.03;4.15;;;24.30;99.90;;;;;;1949341;72;22298;-80
2022/08/27 10:02:15;;;;;;;4.65;4.20;;;24.00;99.90;;;;;;1938404;72;22621;-80
2022/08/27 10:05:16;;;;;;;4.90;4.40;;;24.00;99.90;;;;;;1899408;75;21109;-80
2022/08/27 10:08:12;;;;;;;5.00;4.50;;;24.00;99.90;;;;;;1884550;75;21126;-80
2022/08/27 10:11:07;;;;;;;5.50;4.22;;;24.00;99.90;;;;;;1900678;75;21047;-81
2022/08/27 10:14:01;;;;;;;4.53;4.12;;;24.10;99.90;;;;;;1897588;75;21135;-80
2022/08/27 10:17:03;;;;;;;4.70;4.30;;;24.30;99.90;;;;;;1888746;75;21136;-82
2022/08/27 10:19:59;;;;;;;4.75;4.35;;;24.20;99.90;;;;;;1898876;75;21054;-80
2022/08/27 10:22:58;;;;;;;4.83;4.42;;;24.30;99.90;;;;;;1903307;75;21125;-81
2022/08/27 10:26:01;;;;;;;6.05;4.30;;;24.40;99.90;;;;;;1901557;75;21185;-81
2022/08/27 10:29:10;;;;;;;4.80;4.40;;;24.50;99.90;;;;;;1904062;75;21063;-81
2022/08/27 10:32:08;;;;;;;5.50;5.00;;;24.50;99.90;;;;;;1902314;75;21320;-81
2022/08/27 10:35:00;;;;;;;;;;;24.40;99.90;;;;;;1896696;75;21067;-80
2022/08/27 10:37:59;;;;;;;4.90;4.50;;;24.50;99.90;;;;;;1886836;75;20122;-81
2022/08/27 10:40:56;;;;;;;5.03;4.53;;;24.50;99.90;;;;;;1884686;75;21039;-81
2022/08/27 10:46:50;;;;;;;4.70;4.30;;;24.50;99.90;;;;;;1940372;72;22129;-80
2022/08/27 10:49:46;;;;;;;5.08;4.67;;;24.60;99.90;;;;;;1904777;74;21090;-74
2022/08/27 10:52:45;;;;;;;4.87;4.47;;;24.50;99.90;;;;;;1901149;74;21058;-74
2022/08/27 10:55:41;;;;;;;5.55;4.65;;;24.60;99.90;;;;;;1886153;75;21605;-74
2022/08/27 10:58:39;;;;;;;5.00;4.60;;;24.70;99.90;;;;;;1894437;75;21099;-74
2022/08/27 11:01:38;;;;;;;4.92;4.50;;;24.70;99.90;;;;;;1897174;75;21087;-75
2022/08/27 11:04:32;;;;;;;4.85;4.45;;;24.80;99.90;;;;;;1900745;75;21145;-76
2022/08/27 11:10:09;;;;;;;5.00;4.60;;;24.80;99.90;;;;;;1934080;72;22209;-75
2022/08/27 11:13:04;;;;;;;5.30;4.80;;;24.80;99.90;;;;;;1880625;75;21587;-75
2022/08/27 11:15:57;;;;;;;5.20;4.70;;;24.80;99.90;;;;;;1894326;75;21051;-75
2022/08/27 11:21:39;;;;;;;4.97;4.53;;;24.80;99.90;;;;;;1962300;72;22130;-75
2022/08/27 11:24:46;;;;;;;6.37;4.53;;;24.80;99.90;;;;;;1921316;73;21050;-75
2022/08/27 11:27:39;;;;;;;5.30;4.80;;;24.70;99.90;;;;;;1917920;73;21173;-75
2022/08/27 11:30:34;;;;;;;5.22;4.72;;;24.60;99.90;;;;;;1933953;73;21127;-72
2022/08/27 11:36:50;;;;;;;5.50;5.07;;;24.90;99.90;;;;;;1910833;72;28158;-71
2022/08/27 11:42:40;;;;;;;5.25;4.78;;;25.10;99.90;;;;;;1950768;72;22295;-74
2022/08/27 11:45:37;;;;;;;7.97;5.00;;;25.00;99.90;;;;;;1922612;73;21254;-74
2022/08/27 11:48:30;;;;;;;5.35;4.90;;;25.00;99.90;;;;;;1928194;73;21470;-75
2022/08/27 11:51:32;;;;;;;5.37;4.47;;;25.00;99.90;;;;;;1935721;73;21147;-79
2022/08/27 11:54:28;;;;;;;5.08;4.58;;;24.90;99.90;;;;;;1926571;73;21098;-81
2022/08/27 11:57:31;;;;;;;6.85;4.83;;;24.90;99.90;;;;;;1927807;73;21097;-78
2022/08/27 12:00:25;;;;;;;4.80;4.40;;;25.00;99.90;;;;;;1931732;73;21142;-78
2022/08/27 12:06:22;;;;;;;4.70;4.40;;;25.10;99.90;;;;;;1948653;72;22174;-78
2022/08/27 12:09:19;;;;;;;4.15;3.85;;;25.20;99.90;;;;;;1915317;74;21051;-79
2022/08/27 12:12:14;;;;;;;5.22;4.75;;;25.30;99.90;;;;;;1915272;74;21093;-79
2022/08/27 12:15:09;;;;;;;4.83;4.42;;;25.30;99.90;;;;;;1917696;74;21048;-83
2022/08/27 12:18:07;;;;;;;4.85;4.45;;;25.50;99.90;;;;;;1920273;74;21039;-85
2022/08/27 12:23:46;;;;;;;4.28;3.98;;;25.50;99.90;;;;;;1954578;72;22220;-82
2022/08/27 12:26:39;;;;;;;4.10;3.80;;;25.60;99.90;;;;;;1917581;73;21050;-83
2022/08/27 12:29:36;;;;;;;4.90;4.42;;;25.60;99.90;;;;;;1918796;73;21054;-83
2022/08/27 12:32:32;;;;;;;5.58;4.95;;;25.50;99.90;;;;;;1924540;73;21119;-82
2022/08/27 12:41:30;;;;;;;4.92;4.53;;;25.70;99.90;;;;;;1916153;72;28487;-84
2022/08/27 12:44:38;;;;;;;6.30;4.33;;;25.80;99.90;;;;;;1898446;75;21551;-82
2022/08/27 12:50:28;;;;;;;4.33;4.03;;;25.80;99.90;;;;;;1947860;72;22229;-83
2022/08/27 12:56:45;;;;;;;4.50;4.10;;;25.90;99.90;;;;;;1942983;72;22223;-84
2022/08/27 12:59:47;;;;;;;4.42;4.12;;;25.90;99.90;;;;;;1901223;75;21111;-84
2022/08/27 13:03:09;;;;;;;4.42;4.05;;;26.00;99.90;;;;;;1900461;75;21156;-83
2022/08/27 13:06:00;;;;;;;4.05;3.75;;;25.90;99.90;;;;;;1895773;75;21118;-82
2022/08/27 13:08:58;;;;;;;4.12;3.83;;;25.80;99.90;;;;;;1898282;75;21087;-82
2022/08/27 13:11:54;;;;;;;4.15;3.75;;;25.90;99.90;;;;;;1912245;75;21047;-82
2022/08/27 13:17:24;;;;;;;4.00;3.60;;;25.90;99.90;;;;;;1941861;72;22236;-76
2022/08/27 13:20:21;;;;;;;3.90;3.58;;;26.00;99.90;;;;;;1947970;73;21055;-75
2022/08/27 13:23:34;;;;;;;5.28;4.05;;;26.10;99.90;;;;;;1943133;73;21514;-76
2022/08/27 13:26:30;;;;;;;3.77;3.47;;;26.10;99.90;;;;;;1942164;73;21033;-75
2022/08/27 13:29:21;;;;;;;3.95;3.62;;;26.10;99.90;;;;;;1937150;73;21054;-77
2022/08/27 13:32:24;;;;;;;4.55;4.15;;;26.10;99.90;;;;;;1951350;73;21082;-77
2022/08/27 13:35:17;;;;;;;4.47;4.00;;;26.10;99.90;;;;;;1946103;73;21035;-76
2022/08/27 13:38:09;;;;;;;3.90;3.40;;;26.00;99.90;;;;;;1948503;73;21494;-76
2022/08/27 13:47:00;;;;;;;3.65;3.35;;;26.20;99.90;;;;;;1942620;72;22245;-79
2022/08/27 13:49:53;;;;;;;4.10;3.80;;;26.30;99.90;;;;;;1929464;73;21109;-78
2022/08/27 13:56:09;;;;;;;3.92;3.62;;;26.40;99.90;;;;;;1935296;73;21128;-75
2022/08/27 13:59:11;;;;;;;3.92;3.62;;;26.40;99.90;;;;;;1926047;73;21087;-75
2022/08/27 14:02:24;;;;;;;3.90;3.27;;;26.50;99.90;;;;;;1932595;73;21027;-79
2022/08/27 14:05:19;;;;;;;3.83;3.50;;;26.50;99.90;;;;;;1926642;73;21092;-79
2022/08/27 14:11:03;;;;;;;4.78;3.37;;;27.00;99.90;;;;;;1946483;72;22205;-82
2022/08/27 14:14:00;;;;;;;3.52;3.33;;;27.40;99.90;;;;;;1930682;73;21121;-80
2022/08/27 14:16:59;;;;;;;4.47;3.33;;;27.70;99.90;;;;;;1929211;73;21050;-79
2022/08/27 14:19:51;;;;;;;3.40;3.10;;;28.10;99.90;;;;;;1930830;73;21109;-80
2022/08/27 14:22:43;;;;;;;3.62;3.33;;;27.90;99.90;;;;;;1917433;75;21099;-78
2022/08/27 14:25:34;;;;;;;3.50;3.20;;;28.10;99.90;;;;;;1933965;73;21194;-78
2022/08/27 14:28:26;;;;;;;3.08;2.87;;;28.40;99.90;;;;;;1932078;73;21083;-77
2022/08/27 14:31:18;;;;;;;3.90;3.30;;;28.50;99.90;;;;;;1928013;73;21565;-79
2022/08/27 14:34:10;;;;;;;3.30;3.00;;;28.70;99.90;;;;;;1928447;73;21120;-76
2022/08/27 14:39:42;;;;;;;3.50;3.20;;;29.00;99.90;;;;;;1945359;72;22145;-76
2022/08/27 14:42:35;;;;;;;3.30;3.10;;;28.80;99.90;;;;;;1930733;73;21100;-79
2022/08/27 14:45:26;;;;;;;3.87;3.42;;;28.90;99.90;;;;;;1923489;73;21054;-71
2022/08/27 14:48:21;;;;;;;3.80;2.87;;;28.90;99.90;;;;;;1925462;73;21054;-74
2022/08/27 14:51:17;;;;;;;3.30;3.00;;;29.20;99.90;;;;;;1917994;75;21103;-81
2022/08/27 14:54:09;;;;;;;3.65;3.35;;;29.50;99.90;;;;;;1921025;73;21117;-81
2022/08/27 14:57:01;;;;;;;4.08;3.20;;;29.30;99.90;;;;;;1926291;73;21089;-81
2022/08/27 14:59:53;;;;;;;3.50;3.20;;;29.30;99.90;;;;;;1929682;73;21101;-81
2022/08/27 15:05:30;;;;;;;4.00;3.00;;;29.40;99.90;;;;;;1943852;72;22262;-89
2022/08/27 15:08:28;;;;;;;3.60;3.10;;;29.40;99.90;;;;;;1907018;75;21051;-87
2022/08/27 15:11:26;;;;;;;3.37;2.90;;;29.40;99.90;;;;;;1906583;75;21067;-88
2022/08/27 15:14:20;;;;;;;3.98;2.80;;;29.80;99.90;;;;;;1889981;75;21086;-80
2022/08/27 15:17:11;;;;;;;3.00;2.70;;;29.90;99.90;;;;;;1886832;75;21098;-75
2022/08/27 15:20:09;;;;;;;5.72;3.00;;;29.80;99.90;;;;;;1895970;75;21226;-76
2022/08/27 15:23:02;;;;;;;2.90;2.70;;;29.60;99.90;;;;;;1884512;75;21097;-73
2022/08/27 15:25:53;;;;;;;4.53;3.00;;;29.80;99.90;;;;;;1891443;75;21094;-79
2022/08/27 15:28:46;;;;;;;3.30;3.00;;;29.70;99.90;;;;;;1909492;75;21117;-77
2022/08/27 15:31:42;;;;;;;3.55;3.02;;;29.70;99.90;;;;;;1911938;75;21086;-76
2022/08/27 15:34:33;;;;;;;3.22;2.92;;;29.80;99.90;;;;;;1907544;75;21164;-75
2022/08/27 15:37:33;;;;;;;3.40;3.10;;;30.00;99.90;;;;;;1902072;75;21155;-79
2022/08/27 15:40:27;;;;;;;3.17;2.85;;;30.20;99.90;;;;;;1906869;75;21255;-82
2022/08/27 15:43:18;;;;;;;3.60;3.20;;;30.10;99.90;;;;;;1888190;75;21084;-78
2022/08/27 15:46:09;;;;;;;4.50;3.22;;;29.90;99.90;;;;;;1897852;75;21109;-77
2022/08/27 15:49:01;;;;;;;3.12;2.92;;;29.90;99.90;;;;;;1891226;75;21092;-75
2022/08/27 15:51:54;;;;;;;3.70;3.40;;;30.20;99.90;;;;;;1912812;75;21164;-75
2022/08/27 15:54:47;;;;;;;3.10;2.80;;;30.20;99.90;;;;;;1905593;75;21138;-75
2022/08/27 15:57:39;;;;;;;3.37;2.85;;;30.10;99.90;;;;;;1899181;75;21059;-75
2022/08/27 16:00:33;;;;;;;3.45;3.08;;;29.80;99.90;;;;;;1889070;75;21128;-73
2022/08/27 16:03:24;;;;;;;3.27;2.98;;;29.50;99.90;;;;;;1907165;75;21181;-75
2022/08/27 16:06:17;;;;;;;3.27;2.98;;;30.00;99.90;;;;;;1891273;75;21075;-76
2022/08/27 16:09:09;;;;;;;3.87;3.08;;;30.10;99.90;;;;;;1892263;75;21103;-79
2022/08/27 16:12:00;;;;;;;4.65;3.52;;;29.80;99.90;;;;;;1904365;75;21167;-78
2022/08/27 20:19:05;;;;;;;4.28;3.60;;;24.40;99.90;;;;;;1933524;72;26462;-76
2022/08/27 20:21:56;;;;;;;4.58;3.80;;;24.40;99.90;;;;;;1886049;75;21059;-80
2022/08/27 20:24:47;;;;;;;3.62;3.33;;;24.40;99.90;;;;;;1911453;75;21112;-77
2022/08/27 20:27:39;;;;;;;3.92;3.47;;;24.40;99.90;;;;;;1894071;75;21144;-78
2022/08/27 20:30:32;;;;;;;3.47;3.17;;;24.40;99.90;;;;;;1905475;75;21109;-78
2022/08/27 20:33:25;;;;;;;4.85;3.20;;;24.40;99.90;;;;;;1895324;75;21144;-78
2022/08/27 20:36:16;;;;;;;3.60;3.27;;;24.40;99.90;;;;;;1896403;75;21234;-79
2022/08/27 20:39:07;;;;;;;3.77;3.33;;;24.40;99.90;;;;;;1906256;74;21047;-81
2022/08/27 20:41:59;;;;;;;4.65;3.12;;;24.40;99.90;;;;;;1892073;75;21098;-78
2022/08/27 20:44:50;;;;;;;4.72;3.37;;;24.40;99.90;;;;;;1888716;75;21785;-79
2022/08/27 20:50:36;;;;;;;7.58;3.72;;;24.30;99.90;;;;;;1945342;72;22234;-77
2022/08/27 20:53:41;;;;;;;3.70;3.40;;;24.20;99.90;;;;;;1909438;75;21116;-78
2022/08/27 20:56:33;;;;;;;5.25;3.55;;;24.20;99.90;;;;;;1892806;75;21107;-79
2022/08/27 21:02:45;;;;;;;3.58;3.27;;;24.20;99.90;;;;;;1903083;75;21087;-79
2022/08/27 21:05:45;;;;;;;4.05;3.55;;;24.20;99.90;;;;;;1895644;75;21027;-77
2022/08/27 21:11:16;;;;;;;4.12;3.60;;;24.10;99.90;;;;;;1944407;72;22197;-78
2022/08/27 21:14:08;;;;;;;3.45;3.15;;;24.10;99.90;;;;;;1888600;75;21103;-78
2022/08/27 21:17:00;;;;;;;3.60;3.30;;;24.10;99.90;;;;;;1885899;75;21055;-78
2022/08/27 21:19:51;;;;;;;3.98;3.60;;;24.00;99.90;;;;;;1887976;75;21055;-77
2022/08/27 21:22:44;;;;;;;4.00;3.60;;;24.10;99.90;;;;;;1905471;75;21110;-77
2022/08/27 21:25:36;;;;;;;4.58;3.50;;;24.00;99.90;;;;;;1891917;75;21086;-80
2022/08/27 21:33:45;;;;;;;3.40;3.10;;;24.00;99.90;;;;;;1949698;72;22283;-78
2022/08/27 21:36:37;;;;;;;3.60;3.25;;;23.90;99.90;;;;;;1893717;75;21183;-77
2022/08/27 21:39:29;;;;;;;3.77;3.35;;;24.00;99.90;;;;;;1895298;75;21484;-78
2022/08/27 21:42:20;;;;;;;4.30;3.75;;;24.00;99.90;;;;;;1900048;75;21296;-80
2022/08/27 21:45:12;;;;;;;3.72;3.40;;;23.90;99.90;;;;;;1892330;75;21209;-77
2022/08/27 21:48:06;;;;;;;4.00;3.70;;;24.00;99.90;;;;;;1892955;74;21146;-79
2022/08/27 21:50:57;;;;;;;5.95;3.70;;;23.90;99.90;;;;;;1906917;75;21102;-77
2022/08/27 21:53:48;;;;;;;4.42;3.52;;;23.80;99.90;;;;;;1914676;75;21126;-78
2022/08/27 21:56:40;;;;;;;3.72;3.42;;;23.70;99.90;;;;;;1901525;75;21047;-77
2022/08/27 21:59:32;;;;;;;3.70;3.40;;;23.70;99.90;;;;;;1888728;75;21047;-77
2022/08/27 22:02:26;;;;;;;3.90;3.60;;;23.80;99.90;;;;;;1886924;75;21094;-77
2022/08/27 22:05:19;;;;;;;4.25;3.72;;;23.70;99.90;;;;;;1900526;75;21167;-78
2022/08/27 22:08:11;;;;;;;6.28;4.10;;;23.70;99.90;;;;;;1891439;75;21082;-77
2022/08/27 22:11:03;;;;;;;3.92;3.50;;;23.60;99.90;;;;;;1906106;75;21136;-78
2022/08/27 22:13:56;;;;;;;4.83;3.85;;;23.60;99.90;;;;;;1900912;75;21083;-78
2022/08/27 22:16:47;;;;;;;4.25;3.83;;;23.50;99.90;;;;;;1900817;75;21234;-77
2022/08/27 22:22:19;;;;;;;4.08;3.62;;;23.30;99.90;;;;;;1935042;72;22227;-77